Time,TemperatureF,DewpointF,PressureIn,WindDirection,WindDirectionDegrees,WindSpeedMPH,WindSpeedGustMPH,Humidity,HourlyPrecipIn,Conditions,Clouds,dailyrainin,SolarRadiationWatts/m^2,SoftwareType,DateUTC
2013-01-25 00:01:00,27.0,23.0,-100.00,WSW,247,0.0,4.0,86,0.00,,,0.00,0.000000,,2013-01-25 08:01:00,
2013-01-25 00:32:00,27.0,24.0,-100.00,WSW,255,0.0,4.0,89,0.00,,,0.00,0.000000,,2013-01-25 08:32:00,
2013-01-25 00:42:00,27.0,24.0,-100.00,WSW,255,0.0,4.0,89,0.00,,,0.00,0.000000,,2013-01-25 08:42:00,
2013-01-25 00:52:00,27.0,24.0,-100.00,WSW,255,0.0,4.0,89,0.00,,,0.00,0.000000,,2013-01-25 08:52:00,
2013-01-25 01:01:00,27.0,24.0,-100.00,WSW,255,0.0,4.0,89,0.00,,,0.00,0.000000,,2013-01-25 09:01:00,
2013-01-25 01:32:00,26.0,23.0,-100.00,NW,326,0.0,3.0,90,0.00,,,0.00,0.000000,,2013-01-25 09:32:00,
2013-01-25 01:42:00,26.0,23.0,-100.00,NW,326,0.0,3.0,90,0.00,,,0.00,0.000000,,2013-01-25 09:42:00,
2013-01-25 01:52:00,26.0,23.0,-100.00,NW,326,0.0,3.0,90,0.00,,,0.00,0.000000,,2013-01-25 09:52:00,
2013-01-25 02:01:00,26.0,23.0,-100.00,NW,326,0.0,3.0,90,0.00,,,0.00,0.000000,,2013-01-25 10:01:00,
2013-01-25 02:32:00,26.0,24.0,-100.00,WSW,242,0.0,0.0,93,0.00,,,0.00,0.000000,,2013-01-25 10:32:00,
2013-01-25 02:42:00,26.0,24.0,-100.00,WSW,242,0.0,0.0,93,0.00,,,0.00,0.000000,,2013-01-25 10:42:00,
2013-01-25 02:52:00,26.0,24.0,-100.00,WSW,242,0.0,0.0,93,0.00,,,0.00,0.000000,,2013-01-25 10:52:00,
2013-01-25 03:02:00,26.0,24.0,-100.00,WSW,242,0.0,0.0,93,0.00,,,0.00,0.000000,,2013-01-25 11:02:00,
2013-01-25 03:33:00,27.0,24.0,-100.00,North,350,0.0,0.0,90,0.00,,,0.00,0.000000,,2013-01-25 11:33:00,
2013-01-25 03:42:00,27.0,24.0,-100.00,North,350,0.0,0.0,90,0.00,,,0.00,0.000000,,2013-01-25 11:42:00,
2013-01-25 03:52:00,27.0,24.0,-100.00,North,350,0.0,0.0,90,0.00,,,0.00,0.000000,,2013-01-25 11:52:00,
2013-01-25 04:02:00,27.0,24.0,-100.00,North,350,0.0,0.0,90,0.00,,,0.00,0.000000,,2013-01-25 12:02:00,
2013-01-25 04:32:00,27.0,25.0,-100.00,NNE,24,0.0,0.0,91,0.00,,,0.00,0.000000,,2013-01-25 12:32:00,
2013-01-25 04:42:00,27.0,25.0,-100.00,NNE,24,0.0,0.0,91,0.00,,,0.00,0.000000,,2013-01-25 12:42:00,
2013-01-25 04:53:00,27.0,25.0,-100.00,NNE,24,0.0,0.0,91,0.00,,,0.00,0.000000,,2013-01-25 12:53:00,
2013-01-25 05:02:00,27.0,25.0,-100.00,NNE,24,0.0,0.0,91,0.00,,,0.00,0.000000,,2013-01-25 13:02:00,
2013-01-25 05:33:00,29.0,27.0,-100.00,SW,214,0.0,0.0,92,0.00,,,0.00,0.000000,,2013-01-25 13:33:00,
2013-01-25 05:43:00,29.0,27.0,-100.00,SW,214,0.0,0.0,92,0.00,,,0.00,0.000000,,2013-01-25 13:43:00,
2013-01-25 05:52:00,29.0,27.0,-100.00,SW,214,0.0,0.0,92,0.00,,,0.00,0.000000,,2013-01-25 13:52:00,
2013-01-25 06:02:00,29.0,27.0,-100.00,SW,214,0.0,0.0,92,0.00,,,0.00,0.000000,,2013-01-25 14:02:00,
2013-01-25 06:33:00,30.0,29.0,-100.00,ESE,118,0.0,0.0,98,0.00,,,0.00,0.000000,,2013-01-25 14:33:00,
2013-01-25 06:42:00,30.0,29.0,-100.00,ESE,118,0.0,0.0,98,0.00,,,0.00,0.000000,,2013-01-25 14:42:00,
2013-01-25 06:53:00,30.0,29.0,-100.00,ESE,118,0.0,0.0,98,0.00,,,0.00,0.000000,,2013-01-25 14:53:00,
2013-01-25 07:02:00,30.0,29.0,-100.00,ESE,118,0.0,0.0,98,0.00,,,0.00,0.000000,,2013-01-25 15:02:00,
2013-01-25 07:33:00,32.0,31.0,-100.00,WSW,247,0.0,3.0,97,0.00,,,0.00,0.000000,,2013-01-25 15:33:00,
2013-01-25 07:42:00,32.0,31.0,-100.00,WSW,247,0.0,3.0,97,0.00,,,0.00,0.000000,,2013-01-25 15:42:00,
2013-01-25 07:53:00,32.0,31.0,-100.00,WSW,247,0.0,3.0,97,0.00,,,0.00,0.000000,,2013-01-25 15:53:00,
2013-01-25 08:02:00,32.0,31.0,-100.00,WSW,247,0.0,3.0,97,0.00,,,0.00,0.000000,,2013-01-25 16:02:00,
2013-01-25 08:33:00,31.0,30.0,-100.00,WSW,255,2.0,4.0,97,0.00,,,0.00,1.000000,,2013-01-25 16:33:00,
2013-01-25 08:43:00,31.0,30.0,-100.00,WSW,255,2.0,4.0,97,0.00,,,0.00,1.000000,,2013-01-25 16:43:00,
2013-01-25 08:53:00,31.0,30.0,-100.00,WSW,255,2.0,4.0,97,0.00,,,0.00,1.000000,,2013-01-25 16:53:00,
2013-01-25 09:02:00,31.0,30.0,-100.00,WSW,255,2.0,4.0,97,0.00,,,0.00,1.000000,,2013-01-25 17:02:00,
2013-01-25 09:33:00,34.0,34.0,-100.00,NW,314,0.0,5.0,98,0.00,,,0.00,21.000000,,2013-01-25 17:33:00,
2013-01-25 10:33:00,37.0,33.0,-100.00,WSW,253,0.0,0.0,85,0.00,,,0.00,109.000000,,2013-01-25 18:33:00,
2013-01-25 10:52:00,37.0,33.0,-100.00,WSW,253,0.0,0.0,85,0.00,,,0.00,109.000000,,2013-01-25 18:52:00,
2013-01-25 11:02:00,37.0,33.0,-100.00,WSW,253,0.0,0.0,85,0.00,,,0.00,109.000000,,2013-01-25 19:02:00,
2013-01-25 11:33:00,35.0,31.0,-100.00,WSW,257,1.0,4.0,84,0.00,,,0.00,219.000000,,2013-01-25 19:33:00,
2013-01-25 11:42:00,35.0,31.0,-100.00,WSW,257,1.0,4.0,84,0.00,,,0.00,219.000000,,2013-01-25 19:42:00,
2013-01-25 11:53:00,35.0,31.0,-100.00,WSW,257,1.0,4.0,84,0.00,,,0.00,219.000000,,2013-01-25 19:53:00,
2013-01-25 12:02:00,35.0,31.0,-100.00,WSW,257,1.0,4.0,84,0.00,,,0.00,219.000000,,2013-01-25 20:02:00,
2013-01-25 12:33:00,43.0,35.0,-100.00,ESE,116,0.0,6.0,72,0.00,,,0.00,185.000000,,2013-01-25 20:33:00,
2013-01-25 13:33:00,51.0,34.0,-100.00,NE,36,0.0,5.0,51,-99.99,,,0.00,543.000000,,2013-01-25 21:33:00,
2013-01-25 14:33:00,36.0,29.0,-100.00,SE,128,1.0,6.0,76,-99.99,,,0.00,164.000000,,2013-01-25 22:33:00,
2013-01-25 14:42:00,36.0,29.0,-100.00,SE,128,1.0,6.0,76,-99.99,,,0.00,164.000000,,2013-01-25 22:42:00,
2013-01-25 14:52:00,36.0,29.0,-100.00,SE,128,1.0,6.0,76,-99.99,,,0.00,164.000000,,2013-01-25 22:52:00,
2013-01-25 15:02:00,36.0,29.0,-100.00,SE,128,1.0,6.0,76,-99.99,,,0.00,164.000000,,2013-01-25 23:02:00,
2013-01-25 15:32:00,37.0,31.0,-100.00,SW,234,0.0,8.0,78,0.00,,,0.00,65.000000,,2013-01-25 23:32:00,
2013-01-25 15:42:00,37.0,31.0,-100.00,SW,234,0.0,8.0,78,0.00,,,0.00,65.000000,,2013-01-25 23:42:00,
2013-01-25 16:33:00,36.0,33.0,-100.00,WSW,244,0.0,7.0,87,0.00,,,0.00,42.000000,,2013-01-26 00:33:00,
2013-01-25 16:42:00,36.0,33.0,-100.00,WSW,244,0.0,7.0,87,0.00,,,0.00,42.000000,,2013-01-26 00:42:00,
2013-01-25 16:53:00,36.0,33.0,-100.00,WSW,244,0.0,7.0,87,0.00,,,0.00,42.000000,,2013-01-26 00:53:00,
2013-01-25 17:01:00,36.0,33.0,-100.00,WSW,244,0.0,7.0,87,0.00,,,0.00,42.000000,,2013-01-26 01:01:00,
2013-01-25 17:32:00,35.0,34.0,-100.00,NNE,16,0.0,4.0,97,0.01,,,0.01,7.000000,,2013-01-26 01:32:00,
2013-01-25 17:42:00,35.0,34.0,-100.00,NNE,16,0.0,4.0,97,0.01,,,0.01,7.000000,,2013-01-26 01:42:00,
2013-01-25 17:52:00,35.0,34.0,-100.00,NNE,16,0.0,4.0,97,0.01,,,0.01,7.000000,,2013-01-26 01:52:00,
2013-01-25 18:01:00,35.0,34.0,-100.00,NNE,16,0.0,4.0,97,0.01,,,0.01,7.000000,,2013-01-26 02:01:00,
2013-01-25 18:32:00,33.0,32.0,-100.00,West,265,0.0,3.0,96,0.00,,,0.01,0.000000,,2013-01-26 02:32:00,
2013-01-25 18:42:00,33.0,32.0,-100.00,West,265,0.0,3.0,96,0.00,,,0.01,0.000000,,2013-01-26 02:42:00,
2013-01-25 18:52:00,33.0,32.0,-100.00,West,265,0.0,3.0,96,0.00,,,0.01,0.000000,,2013-01-26 02:52:00,
2013-01-25 19:01:00,33.0,32.0,-100.00,West,265,0.0,3.0,96,0.00,,,0.01,0.000000,,2013-01-26 03:01:00,
2013-01-25 19:32:00,32.0,32.0,-100.00,SW,224,0.0,4.0,98,0.00,,,0.01,0.000000,,2013-01-26 03:32:00,
2013-01-25 19:43:00,32.0,32.0,-100.00,SW,224,0.0,4.0,98,0.00,,,0.01,0.000000,,2013-01-26 03:43:00,
2013-01-25 19:52:00,32.0,32.0,-100.00,SW,224,0.0,4.0,98,0.00,,,0.01,0.000000,,2013-01-26 03:52:00,
2013-01-25 20:01:00,32.0,32.0,-100.00,SW,224,0.0,4.0,98,0.00,,,0.01,0.000000,,2013-01-26 04:01:00,
2013-01-25 20:32:00,32.0,32.0,-100.00,NW,308,0.0,3.0,100,0.00,,,0.01,0.000000,,2013-01-26 04:32:00,
2013-01-25 20:42:00,32.0,32.0,-100.00,NW,308,0.0,3.0,100,0.00,,,0.01,0.000000,,2013-01-26 04:42:00,
2013-01-25 20:52:00,32.0,32.0,-100.00,NW,308,0.0,3.0,100,0.00,,,0.01,0.000000,,2013-01-26 04:52:00,
2013-01-25 21:02:00,32.0,32.0,-100.00,NW,308,0.0,3.0,100,0.00,,,0.01,0.000000,,2013-01-26 05:02:00,
2013-01-25 21:33:00,33.0,32.0,-100.00,NNW,348,0.0,3.0,97,0.00,,,0.01,0.000000,,2013-01-26 05:33:00,
2013-01-25 21:42:00,33.0,32.0,-100.00,NNW,348,0.0,3.0,97,0.00,,,0.01,0.000000,,2013-01-26 05:42:00,
2013-01-25 21:52:00,33.0,32.0,-100.00,NNW,348,0.0,3.0,97,0.00,,,0.01,0.000000,,2013-01-26 05:52:00,
2013-01-25 22:02:00,33.0,32.0,-100.00,NNW,348,0.0,3.0,97,0.00,,,0.01,0.000000,,2013-01-26 06:02:00,
2013-01-25 22:32:00,32.0,31.0,-100.00,NW,316,0.0,0.0,95,0.00,,,0.01,0.000000,,2013-01-26 06:32:00,
2013-01-25 22:42:00,32.0,31.0,-100.00,NW,316,0.0,0.0,95,0.00,,,0.01,0.000000,,2013-01-26 06:42:00,
2013-01-25 22:52:00,32.0,31.0,-100.00,NW,316,0.0,0.0,95,0.00,,,0.01,0.000000,,2013-01-26 06:52:00,
2013-01-25 23:01:00,32.0,31.0,-100.00,NW,316,0.0,0.0,95,0.00,,,0.01,0.000000,,2013-01-26 07:01:00,
2013-01-25 23:33:00,30.0,28.0,-100.00,NNW,334,0.0,0.0,94,0.00,,,0.01,0.000000,,2013-01-26 07:33:00,
2013-01-25 23:42:00,30.0,28.0,-100.00,NNW,334,0.0,0.0,94,0.00,,,0.01,0.000000,,2013-01-26 07:42:00,
2013-01-25 23:51:00,30.0,28.0,-100.00,NNW,334,0.0,0.0,94,0.00,,,0.01,0.000000,,2013-01-26 07:51:00,